createdAt,value
2019-01-30T00:00:00.934Z,22.67
2019-01-30T00:02:27.466Z,21.00
2019-01-30T00:04:54.053Z,19.33
2019-01-30T00:07:20.629Z,21.60
2019-01-30T00:09:47.205Z,23.20
2019-01-30T00:12:13.813Z,21.70
2019-01-30T00:14:40.385Z,21.70
2019-01-30T00:17:06.926Z,21.80
2019-01-30T00:19:33.631Z,22.77
2019-01-30T00:22:00.162Z,22.27
2019-01-30T00:24:26.645Z,23.23
2019-01-30T00:26:53.384Z,21.57
2019-01-30T00:29:19.960Z,21.27
2019-01-30T00:31:46.455Z,22.43
2019-01-30T00:34:13.200Z,21.53
2019-01-30T00:36:39.839Z,21.67
2019-01-30T00:39:06.730Z,22.00
2019-01-30T00:41:33.323Z,21.10
2019-01-30T00:44:00.003Z,23.37
2019-01-30T00:46:26.587Z,21.30
2019-01-30T00:48:53.332Z,23.00
2019-01-30T00:51:20.026Z,21.00
2019-01-30T00:53:46.677Z,23.20
2019-01-30T00:56:13.367Z,23.50
2019-01-30T00:58:40.005Z,22.77
2019-01-30T01:01:06.693Z,22.03
2019-01-30T01:03:33.569Z,21.40
2019-01-30T01:06:00.101Z,21.00
2019-01-30T01:08:26.690Z,23.40
2019-01-30T01:10:53.347Z,23.13
2019-01-30T01:13:19.993Z,21.13
2019-01-30T01:15:46.568Z,20.80
2019-01-30T01:18:13.308Z,22.47
2019-01-30T01:20:40.001Z,21.30
2019-01-30T01:23:07.672Z,20.97
2019-01-30T01:25:34.271Z,22.63
2019-01-30T01:28:01.014Z,21.00
2019-01-30T01:30:27.955Z,21.20
2019-01-30T01:32:54.833Z,20.50
2019-01-30T01:35:21.989Z,20.50
2019-01-30T01:37:48.573Z,20.30
2019-01-30T01:40:15.534Z,20.47
2019-01-30T01:42:42.211Z,20.10
2019-01-30T01:45:14.438Z,20.03
2019-01-30T01:47:41.189Z,19.80
2019-01-30T01:50:11.297Z,21.60
2019-01-30T01:52:39.520Z,20.97
2019-01-30T01:55:08.710Z,21.30
2019-01-30T01:57:35.349Z,19.57
2019-01-30T02:00:03.523Z,18.80
2019-01-30T02:02:30.133Z,21.07
2019-01-30T02:04:56.668Z,20.10
2019-01-30T02:07:23.202Z,19.93
2019-01-30T02:09:49.772Z,19.50
2019-01-30T02:12:16.312Z,19.53
2019-01-30T02:14:42.915Z,19.73
2019-01-30T02:17:09.573Z,18.80
2019-01-30T02:19:36.109Z,20.30
2019-01-30T02:22:02.892Z,18.77
2019-01-30T02:24:29.485Z,18.00
2019-01-30T02:26:56.030Z,20.90
2019-01-30T02:29:22.769Z,20.07
2019-01-30T02:31:49.412Z,19.77
2019-01-30T02:34:16.112Z,19.00
2019-01-30T02:36:57.827Z,18.87
2019-01-30T02:39:24.370Z,20.30
2019-01-30T02:41:51.449Z,18.10
2019-01-30T02:44:18.131Z,19.53
2019-01-30T02:46:44.685Z,19.70
2019-01-30T02:49:11.266Z,17.47
2019-01-30T02:51:37.804Z,18.80
2019-01-30T02:54:04.497Z,17.93
2019-01-30T02:56:31.036Z,18.60
2019-01-30T02:58:57.692Z,18.90
2019-01-30T03:01:24.186Z,19.37
2019-01-30T03:03:50.853Z,18.40
2019-01-30T03:06:17.449Z,19.20
2019-01-30T03:08:44.030Z,18.33
2019-01-30T03:11:10.668Z,18.27
2019-01-30T03:13:37.241Z,17.90
2019-01-30T03:16:04.032Z,16.43
2019-01-30T03:18:30.576Z,16.37
2019-01-30T03:20:57.174Z,17.60
2019-01-30T03:23:23.919Z,17.27
2019-01-30T03:25:50.535Z,16.50
2019-01-30T03:28:17.069Z,17.83
2019-01-30T03:30:43.814Z,17.43
2019-01-30T03:33:10.502Z,16.87
2019-01-30T03:35:37.088Z,18.37
2019-01-30T03:38:03.725Z,17.67
2019-01-30T03:40:30.514Z,16.70
2019-01-30T03:42:57.153Z,17.97
2019-01-30T03:45:24.320Z,16.37
2019-01-30T03:47:51.332Z,15.07
2019-01-30T03:50:18.022Z,16.43
2019-01-30T03:52:45.754Z,16.33
2019-01-30T03:55:15.299Z,16.57
2019-01-30T03:57:44.055Z,18.17
2019-01-30T04:00:19.777Z,17.60
2019-01-30T04:02:46.621Z,16.80
2019-01-30T04:05:13.364Z,18.27
2019-01-30T04:07:40.003Z,17.70
2019-01-30T04:10:15.750Z,16.30
2019-01-30T04:12:42.220Z,17.17
2019-01-30T04:15:09.132Z,16.47
2019-01-30T04:17:35.818Z,17.80
2019-01-30T04:20:06.614Z,16.63
2019-01-30T04:22:33.237Z,17.40
2019-01-30T04:24:59.834Z,17.23
2019-01-30T04:27:26.478Z,16.93
2019-01-30T04:29:53.141Z,18.60
2019-01-30T04:32:19.693Z,17.20
2019-01-30T04:34:46.253Z,16.50
2019-01-30T04:37:13.026Z,16.90
2019-01-30T04:39:39.695Z,17.00
2019-01-30T04:42:06.231Z,18.00
2019-01-30T04:44:32.810Z,17.37
2019-01-30T04:46:59.445Z,17.60
2019-01-30T04:49:26.014Z,17.40
2019-01-30T04:51:52.586Z,16.07
2019-01-30T04:54:19.153Z,17.70
2019-01-30T04:56:45.695Z,18.50
2019-01-30T04:59:12.356Z,17.73
2019-01-30T05:01:49.199Z,16.63
2019-01-30T05:04:07.261Z,16.37
2019-01-30T05:06:33.938Z,16.97
2019-01-30T05:09:00.490Z,17.60
2019-01-30T05:11:27.051Z,18.33
2019-01-30T05:13:53.714Z,17.17
2019-01-30T05:16:20.284Z,16.67
2019-01-30T05:18:46.731Z,16.90
2019-01-30T05:21:13.296Z,17.77
2019-01-30T05:23:39.826Z,18.10
2019-01-30T05:26:06.434Z,18.10
2019-01-30T05:28:34.639Z,17.17
2019-01-30T05:31:01.306Z,16.23
2019-01-30T05:33:29.144Z,16.13
2019-01-30T05:35:55.812Z,15.70
2019-01-30T05:38:22.564Z,16.43
2019-01-30T05:40:49.343Z,17.27
2019-01-30T05:43:15.875Z,17.87
2019-01-30T05:45:42.516Z,17.60
2019-01-30T05:48:09.046Z,15.90
2019-01-30T05:50:35.621Z,17.20
2019-01-30T05:53:02.565Z,15.93
2019-01-30T05:55:29.129Z,17.03
2019-01-30T05:57:55.859Z,16.73
2019-01-30T06:00:27.732Z,18.40
2019-01-30T06:02:54.404Z,17.00
2019-01-30T06:05:21.044Z,17.90
2019-01-30T06:07:47.578Z,18.20
2019-01-30T06:10:14.312Z,19.73
2019-01-30T06:12:40.846Z,17.80
2019-01-30T06:15:16.194Z,17.53
2019-01-30T06:17:42.730Z,17.60
2019-01-30T06:20:15.477Z,18.50
2019-01-30T06:22:43.817Z,18.43
2019-01-30T06:25:10.694Z,17.60
2019-01-30T06:27:37.527Z,19.57
2019-01-30T06:30:11.198Z,18.30
2019-01-30T06:32:37.836Z,17.57
2019-01-30T06:35:05.600Z,18.30
2019-01-30T06:37:32.238Z,19.23
2019-01-30T06:39:58.858Z,19.37
2019-01-30T06:42:25.412Z,20.00
2019-01-30T06:44:51.977Z,19.20
2019-01-30T06:47:18.639Z,18.93
2019-01-30T06:49:45.181Z,18.90
2019-01-30T06:52:11.737Z,20.10
2019-01-30T06:54:38.294Z,19.17
2019-01-30T06:57:04.850Z,18.70
2019-01-30T06:59:31.500Z,18.97
2019-01-30T07:01:58.259Z,20.97
2019-01-30T07:04:24.896Z,20.17
2019-01-30T07:06:51.658Z,18.43
2019-01-30T07:09:18.200Z,19.40
2019-01-30T07:11:44.830Z,19.00
2019-01-30T07:14:11.382Z,18.17
2019-01-30T07:16:38.116Z,19.40
2019-01-30T07:19:04.711Z,19.60
2019-01-30T07:21:31.487Z,18.77
2019-01-30T07:23:58.226Z,17.67
2019-01-30T07:26:24.921Z,17.23
2019-01-30T07:28:51.665Z,16.90
2019-01-30T07:31:19.283Z,17.67
2019-01-30T07:33:47.273Z,16.47
2019-01-30T07:36:14.041Z,17.03
2019-01-30T07:38:40.702Z,16.90
2019-01-30T07:41:07.262Z,15.80
2019-01-30T07:43:34.311Z,17.17
2019-01-30T07:46:01.216Z,17.00
2019-01-30T07:48:29.017Z,18.60
2019-01-30T07:50:55.918Z,16.87
2019-01-30T07:53:22.758Z,19.20
2019-01-30T07:55:49.643Z,18.43
2019-01-30T07:58:16.183Z,18.40
2019-01-30T08:00:42.716Z,18.20
2019-01-30T08:03:09.395Z,18.63
2019-01-30T08:05:36.128Z,19.00
2019-01-30T08:08:03.297Z,16.07
2019-01-30T08:10:30.026Z,16.00
2019-01-30T08:12:56.802Z,17.07
2019-01-30T08:15:23.842Z,16.67
2019-01-30T08:17:52.306Z,16.60
2019-01-30T08:20:20.759Z,15.10
2019-01-30T08:22:47.527Z,16.70
2019-01-30T08:25:16.400Z,16.80
2019-01-30T08:27:43.609Z,16.87
2019-01-30T08:30:22.405Z,15.47
2019-01-30T08:32:42.442Z,15.10
2019-01-30T08:35:10.265Z,16.83
2019-01-30T08:37:38.445Z,14.83
2019-01-30T08:40:09.435Z,15.53
2019-01-30T08:42:36.143Z,15.03
2019-01-30T08:45:06.573Z,15.50
2019-01-30T08:47:33.402Z,15.33
2019-01-30T08:49:59.954Z,15.00
2019-01-30T08:52:26.521Z,13.93
2019-01-30T08:54:53.154Z,14.40
2019-01-30T08:57:19.916Z,13.47
2019-01-30T08:59:46.458Z,15.60
2019-01-30T09:02:13.131Z,13.97
2019-01-30T09:04:39.661Z,14.50
2019-01-30T09:07:06.287Z,13.47
2019-01-30T09:09:32.826Z,15.00
2019-01-30T09:11:59.387Z,13.13
2019-01-30T09:14:25.917Z,12.97
2019-01-30T09:16:52.485Z,13.87
2019-01-30T09:19:19.133Z,13.63
2019-01-30T09:21:45.706Z,15.10
2019-01-30T09:24:12.237Z,13.53
2019-01-30T09:26:38.767Z,12.90
2019-01-30T09:29:05.635Z,12.43
2019-01-30T09:31:32.180Z,12.33
2019-01-30T09:33:58.751Z,12.80
2019-01-30T09:36:25.381Z,12.87
2019-01-30T09:38:52.041Z,13.30
2019-01-30T09:41:18.685Z,13.90
2019-01-30T09:43:45.397Z,12.80
2019-01-30T09:46:11.989Z,12.50
2019-01-30T09:48:38.622Z,12.90
2019-01-30T09:51:05.169Z,12.83
2019-01-30T09:53:31.824Z,12.00
2019-01-30T09:55:58.385Z,11.80
2019-01-30T09:58:24.950Z,12.00
2019-01-30T10:00:51.585Z,10.70
2019-01-30T10:03:18.256Z,11.67
2019-01-30T10:05:44.801Z,12.93
2019-01-30T10:08:11.637Z,11.43
2019-01-30T10:10:39.590Z,10.40
2019-01-30T10:13:06.933Z,9.43
2019-01-30T10:15:41.595Z,10.70
2019-01-30T10:18:09.072Z,9.97
2019-01-30T10:20:36.806Z,10.20
2019-01-30T10:23:03.771Z,10.00
2019-01-30T10:25:30.396Z,10.07
2019-01-30T10:27:57.140Z,8.90
2019-01-30T10:30:29.133Z,9.57
2019-01-30T10:32:55.792Z,9.23
2019-01-30T10:35:22.642Z,9.80
2019-01-30T10:37:49.324Z,10.40
2019-01-30T10:40:20.009Z,9.33
2019-01-30T10:42:47.277Z,9.00
2019-01-30T10:45:14.345Z,9.47
2019-01-30T10:47:40.920Z,8.97
2019-01-30T10:50:22.536Z,8.80
2019-01-30T10:52:49.210Z,10.00
2019-01-30T10:55:18.952Z,9.10
2019-01-30T10:57:47.112Z,8.47
2019-01-30T11:00:22.682Z,8.43
2019-01-30T11:02:51.063Z,8.10
2019-01-30T11:05:17.656Z,8.10
2019-01-30T11:07:44.223Z,8.50
2019-01-30T11:10:14.168Z,8.20
2019-01-30T11:12:40.714Z,8.10
2019-01-30T11:15:10.493Z,7.43
2019-01-30T11:17:36.928Z,7.50
2019-01-30T11:20:07.397Z,8.67
2019-01-30T11:22:33.820Z,8.60
2019-01-30T11:25:00.443Z,8.40
2019-01-30T11:27:26.934Z,8.00
2019-01-30T11:29:53.397Z,7.23
2019-01-30T11:32:19.941Z,8.47
2019-01-30T11:34:46.512Z,8.23
2019-01-30T11:37:13.253Z,9.10
2019-01-30T11:39:39.845Z,7.47
2019-01-30T11:42:06.481Z,8.70
2019-01-30T11:44:33.488Z,7.47
2019-01-30T11:47:00.055Z,8.00
2019-01-30T11:49:26.590Z,7.57
2019-01-30T11:51:53.149Z,8.50
2019-01-30T11:54:19.797Z,7.53
2019-01-30T11:56:46.473Z,8.53
2019-01-30T11:59:13.018Z,7.10
2019-01-30T12:01:39.751Z,7.70
2019-01-30T12:04:06.295Z,6.40
2019-01-30T12:06:32.884Z,7.27
2019-01-30T12:08:59.442Z,6.90
2019-01-30T12:11:26.287Z,6.70
2019-01-30T12:13:52.821Z,6.33
2019-01-30T12:16:19.368Z,6.53
2019-01-30T12:18:46.188Z,7.33
2019-01-30T12:21:12.829Z,6.73
2019-01-30T12:23:39.502Z,5.80
2019-01-30T12:26:06.138Z,6.50
2019-01-30T12:28:32.705Z,5.60
2019-01-30T12:30:59.348Z,5.60
2019-01-30T12:33:26.008Z,5.43
2019-01-30T12:35:52.554Z,5.50
2019-01-30T12:38:19.124Z,5.00
2019-01-30T12:40:45.657Z,6.53
2019-01-30T12:43:12.279Z,6.13
2019-01-30T12:45:38.862Z,5.27
2019-01-30T12:48:06.137Z,5.30
2019-01-30T12:50:32.989Z,5.90
2019-01-30T12:52:59.552Z,6.20
2019-01-30T12:55:29.210Z,6.10
2019-01-30T12:57:54.969Z,5.90
2019-01-30T13:00:27.193Z,5.77
2019-01-30T13:02:53.961Z,6.20
2019-01-30T13:05:22.209Z,5.47
2019-01-30T13:07:48.840Z,6.00
2019-01-30T13:10:15.369Z,5.67
2019-01-30T13:12:42.154Z,6.00
2019-01-30T13:15:17.278Z,6.47
2019-01-30T13:17:46.577Z,5.77
2019-01-30T13:20:14.452Z,5.57
2019-01-30T13:22:41.121Z,6.20
2019-01-30T13:25:09.451Z,5.50
2019-01-30T13:27:36.175Z,6.07
2019-01-30T13:30:06.557Z,6.00
2019-01-30T13:32:33.202Z,5.50
2019-01-30T13:34:59.752Z,5.90
2019-01-30T13:37:26.521Z,5.40
2019-01-30T13:39:53.261Z,5.77
2019-01-30T13:42:19.926Z,4.90
2019-01-30T13:44:46.499Z,5.73
2019-01-30T13:47:13.246Z,5.50
2019-01-30T13:49:39.818Z,5.73
2019-01-30T13:52:06.552Z,5.63
2019-01-30T13:54:34.337Z,5.83
2019-01-30T13:57:01.982Z,5.70
2019-01-30T13:59:28.922Z,5.57
2019-01-30T14:01:55.687Z,6.07
2019-01-30T14:04:22.837Z,5.50
2019-01-30T14:06:49.370Z,5.80
2019-01-30T14:09:16.048Z,6.13
2019-01-30T14:11:42.843Z,6.03
2019-01-30T14:14:09.650Z,5.93
2019-01-30T14:16:36.472Z,5.97
2019-01-30T14:19:03.320Z,6.50
2019-01-30T14:21:30.214Z,6.53
2019-01-30T14:23:56.859Z,6.87
2019-01-30T14:26:23.746Z,7.20
2019-01-30T14:28:50.410Z,6.77
2019-01-30T14:31:17.052Z,6.80
2019-01-30T14:33:43.965Z,7.47
2019-01-30T14:36:10.974Z,7.80
2019-01-30T14:38:37.561Z,8.40
2019-01-30T14:41:04.657Z,7.70
2019-01-30T14:43:31.298Z,7.30
2019-01-30T14:45:58.011Z,7.90
2019-01-30T14:48:24.742Z,8.27
2019-01-30T14:50:51.425Z,8.30
2019-01-30T14:53:18.525Z,7.73
2019-01-30T14:55:45.443Z,8.63
2019-01-30T14:58:13.069Z,8.83
2019-01-30T15:00:39.997Z,9.27
2019-01-30T15:03:07.769Z,8.93
2019-01-30T15:05:34.618Z,8.53
2019-01-30T15:08:02.076Z,8.50
2019-01-30T15:10:29.362Z,8.20
2019-01-30T15:12:56.236Z,9.37
2019-01-30T15:15:28.173Z,9.80
2019-01-30T15:17:56.193Z,9.60
2019-01-30T15:20:34.107Z,8.93
2019-01-30T15:23:01.329Z,9.90
2019-01-30T15:25:29.482Z,10.70
2019-01-30T15:27:57.665Z,10.40
2019-01-30T15:30:27.372Z,10.00
2019-01-30T15:32:54.285Z,9.87
2019-01-30T15:35:32.864Z,9.97
2019-01-30T15:37:51.298Z,9.60
2019-01-30T15:40:21.276Z,10.00
2019-01-30T15:42:49.330Z,9.80
2019-01-30T15:45:19.574Z,10.03
2019-01-30T15:47:46.622Z,10.50
2019-01-30T15:50:19.040Z,10.87
2019-01-30T15:52:46.461Z,10.80
2019-01-30T15:55:14.564Z,11.70
2019-01-30T15:57:44.262Z,10.63
2019-01-30T16:00:20.613Z,12.73
2019-01-30T16:02:48.325Z,12.60
2019-01-30T16:05:16.034Z,12.13
2019-01-30T16:07:43.594Z,12.73
2019-01-30T16:10:13.119Z,12.27
2019-01-30T16:12:41.609Z,12.37
2019-01-30T16:15:27.028Z,12.53
2019-01-30T16:17:53.993Z,12.67
2019-01-30T16:20:21.759Z,11.77
2019-01-30T16:22:49.268Z,12.50
2019-01-30T16:25:18.941Z,12.73
2019-01-30T16:27:45.932Z,12.77
2019-01-30T16:30:18.444Z,12.53
2019-01-30T16:32:45.292Z,11.90
2019-01-30T16:35:15.031Z,12.00
2019-01-30T16:37:43.580Z,11.57
2019-01-30T16:40:13.949Z,13.37
2019-01-30T16:42:41.978Z,12.47
2019-01-30T16:45:17.741Z,13.40
2019-01-30T16:47:45.448Z,12.47
2019-01-30T16:50:14.632Z,12.70
2019-01-30T16:52:42.228Z,14.30
2019-01-30T16:55:11.640Z,14.17
2019-01-30T16:57:39.366Z,14.20
2019-01-30T17:00:24.316Z,12.93
2019-01-30T17:02:52.049Z,13.67
2019-01-30T17:05:20.408Z,14.10
2019-01-30T17:07:48.708Z,13.03
2019-01-30T17:10:17.585Z,13.17
2019-01-30T17:12:45.701Z,13.13
2019-01-30T17:15:21.433Z,14.30
2019-01-30T17:17:49.594Z,12.73
2019-01-30T17:20:20.034Z,12.80
2019-01-30T17:22:47.689Z,12.83
2019-01-30T17:25:15.385Z,12.50
2019-01-30T17:27:43.105Z,12.90
2019-01-30T17:30:29.232Z,12.33
2019-01-30T17:32:57.222Z,12.87
2019-01-30T17:35:24.989Z,12.73
2019-01-30T17:37:53.314Z,13.43
2019-01-30T17:40:22.865Z,13.37
2019-01-30T17:42:51.243Z,13.63
2019-01-30T17:45:19.575Z,13.40
2019-01-30T17:47:47.597Z,13.70
2019-01-30T17:50:21.010Z,13.43
2019-01-30T17:52:48.849Z,13.07
2019-01-30T17:55:16.879Z,13.50
2019-01-30T17:57:44.822Z,13.30
2019-01-30T18:00:20.451Z,12.63
2019-01-30T18:02:48.516Z,13.20
2019-01-30T18:05:17.050Z,12.90
2019-01-30T18:07:44.961Z,12.30
2019-01-30T18:10:17.725Z,12.77
2019-01-30T18:12:44.681Z,12.90
2019-01-30T18:15:13.330Z,13.37
2019-01-30T18:17:41.449Z,13.03
2019-01-30T18:20:15.310Z,12.30
2019-01-30T18:22:44.516Z,13.33
2019-01-30T18:25:16.911Z,12.37
2019-01-30T18:27:45.466Z,12.27
2019-01-30T18:30:21.602Z,13.60
2019-01-30T18:32:50.154Z,13.30
2019-01-30T18:35:18.902Z,12.80
2019-01-30T18:37:49.047Z,12.80
2019-01-30T18:40:19.613Z,14.20
2019-01-30T18:42:49.718Z,13.37
2019-01-30T18:45:20.671Z,13.83
2019-01-30T18:47:49.182Z,13.43
2019-01-30T18:50:25.214Z,14.37
2019-01-30T18:52:54.078Z,12.13
2019-01-30T18:55:22.564Z,12.93
2019-01-30T18:57:51.182Z,13.23
2019-01-30T19:00:24.560Z,12.47
2019-01-30T19:02:52.596Z,13.10
2019-01-30T19:05:21.151Z,12.13
2019-01-30T19:07:49.452Z,12.67
2019-01-30T19:10:18.202Z,12.10
2019-01-30T19:12:47.450Z,13.17
2019-01-30T19:15:18.245Z,12.00
2019-01-30T19:17:46.305Z,13.13
2019-01-30T19:20:19.848Z,12.07
2019-01-30T19:22:48.288Z,13.00
2019-01-30T19:25:16.502Z,12.20
2019-01-30T19:27:44.836Z,12.13
2019-01-30T19:30:21.334Z,11.80
2019-01-30T19:32:49.935Z,11.27
2019-01-30T19:35:18.622Z,13.30
2019-01-30T19:37:46.958Z,12.03
2019-01-30T19:40:15.352Z,12.60
2019-01-30T19:42:44.779Z,11.77
2019-01-30T19:45:14.898Z,11.60
2019-01-30T19:47:43.529Z,11.70
2019-01-30T19:50:14.458Z,12.17
2019-01-30T19:52:42.902Z,12.37
2019-01-30T19:55:11.281Z,11.00
2019-01-30T19:57:39.817Z,12.20
2019-01-30T20:00:25.734Z,11.87
2019-01-30T20:02:54.053Z,13.13
2019-01-30T20:05:22.263Z,12.60
2019-01-30T20:07:50.709Z,12.10
2019-01-30T20:10:21.459Z,11.70
2019-01-30T20:12:50.462Z,12.10
2019-01-30T20:15:18.705Z,12.57
2019-01-30T20:17:47.520Z,13.60
2019-01-30T20:20:17.494Z,12.37
2019-01-30T20:22:45.724Z,11.70
2019-01-30T20:25:16.690Z,13.00
2019-01-30T20:27:45.653Z,13.03
2019-01-30T20:30:16.216Z,13.53
2019-01-30T20:32:44.561Z,13.00
2019-01-30T20:35:13.195Z,13.37
2019-01-30T20:37:41.537Z,13.30
2019-01-30T20:40:12.510Z,13.47
2019-01-30T20:42:40.902Z,12.23
2019-01-30T20:45:11.349Z,13.20
2019-01-30T20:47:39.767Z,14.00
2019-01-30T20:50:16.028Z,13.37
2019-01-30T20:52:44.393Z,13.23
2019-01-30T20:55:14.642Z,14.00
2019-01-30T20:57:43.400Z,13.70
2019-01-30T21:00:22.666Z,13.70
2019-01-30T21:02:51.122Z,13.80
2019-01-30T21:05:19.645Z,14.53
2019-01-30T21:07:48.073Z,14.30
2019-01-30T21:10:22.021Z,14.10
2019-01-30T21:12:50.735Z,13.97
2019-01-30T21:15:19.053Z,15.00
2019-01-30T21:17:47.428Z,14.67
2019-01-30T21:20:16.688Z,15.50
2019-01-30T21:22:45.004Z,16.03
2019-01-30T21:25:15.357Z,16.47
2019-01-30T21:27:43.656Z,15.17
2019-01-30T21:30:29.729Z,15.57
2019-01-30T21:32:58.081Z,16.63
2019-01-30T21:35:26.456Z,17.83
2019-01-30T21:37:54.786Z,15.20
2019-01-30T21:40:22.958Z,15.47
2019-01-30T21:42:51.158Z,14.90
2019-01-30T21:45:24.051Z,15.10
2019-01-30T21:47:52.317Z,15.90
2019-01-30T21:50:20.474Z,15.70
2019-01-30T21:52:48.215Z,14.80
2019-01-30T21:55:18.012Z,15.57
2019-01-30T21:57:45.958Z,18.00
2019-01-30T22:00:18.976Z,16.03
2019-01-30T22:02:46.882Z,16.37
2019-01-30T22:05:15.141Z,17.47
2019-01-30T22:07:42.941Z,15.73
2019-01-30T22:10:13.460Z,16.03
2019-01-30T22:12:41.359Z,16.27
2019-01-30T22:15:11.080Z,17.23
2019-01-30T22:17:38.826Z,17.30
2019-01-30T22:20:09.361Z,16.40
2019-01-30T22:22:36.529Z,16.77
2019-01-30T22:25:06.448Z,16.77
2019-01-30T22:27:33.703Z,16.70
2019-01-30T22:30:01.909Z,17.00
2019-01-30T22:32:28.618Z,17.60
2019-01-30T22:34:55.266Z,17.90
2019-01-30T22:37:22.040Z,18.73
2019-01-30T22:39:48.590Z,17.80
2019-01-30T22:42:15.227Z,18.10
2019-01-30T22:44:41.815Z,18.33
2019-01-30T22:47:08.415Z,18.17
2019-01-30T22:49:34.940Z,17.63
2019-01-30T22:52:01.545Z,19.03
2019-01-30T22:54:28.192Z,17.77
2019-01-30T22:56:54.812Z,18.50
2019-01-30T22:59:21.594Z,19.40
2019-01-30T23:01:48.352Z,19.80
2019-01-30T23:04:18.924Z,18.87
2019-01-30T23:07:13.430Z,19.03
2019-01-30T23:10:12.453Z,19.00
2019-01-30T23:13:05.542Z,18.53
2019-01-30T23:15:48.109Z,19.17
2019-01-30T23:18:30.676Z,19.53
2019-01-30T23:21:01.272Z,20.33
2019-01-30T23:23:37.809Z,20.80
2019-01-30T23:26:08.190Z,21.50
2019-01-30T23:29:09.014Z,20.07
2019-01-30T23:32:03.775Z,18.40
2019-01-30T23:35:06.235Z,19.07
2019-01-30T23:37:39.294Z,20.43
2019-01-30T23:40:22.884Z,20.20
2019-01-30T23:43:05.187Z,21.43
2019-01-30T23:45:41.769Z,18.90
2019-01-30T23:48:27.262Z,20.13
2019-01-30T23:51:14.605Z,19.43
2019-01-30T23:53:53.739Z,20.90
2019-01-30T23:56:33.086Z,20.20
2019-01-30T23:59:09.437Z,20.87
